sensor_id;sensor_type;location;lat;lon;timestamp;temperature;humidity
73570;SHT30;61850;54.980;73.298;2023-03-08T00:01:36;-2.86;89.37
73570;SHT30;61850;54.980;73.298;2023-03-08T00:04:03;-2.88;89.45
73570;SHT30;61850;54.980;73.298;2023-03-08T00:06:29;-2.89;89.39
73570;SHT30;61850;54.980;73.298;2023-03-08T00:09:00;-2.88;89.42
73570;SHT30;61850;54.980;73.298;2023-03-08T00:11:31;-2.91;89.28
73570;SHT30;61850;54.980;73.298;2023-03-08T00:13:58;-2.85;89.15
73570;SHT30;61850;54.980;73.298;2023-03-08T00:16:26;-2.83;89.15
73570;SHT30;61850;54.980;73.298;2023-03-08T00:18:57;-2.85;89.22
73570;SHT30;61850;54.980;73.298;2023-03-08T00:21:24;-2.82;89.15
73570;SHT30;61850;54.980;73.298;2023-03-08T00:23:50;-2.89;88.97
73570;SHT30;61850;54.980;73.298;2023-03-08T00:26:27;-2.82;88.90
73570;SHT30;61850;54.980;73.298;2023-03-08T00:28:57;-2.81;88.79
73570;SHT30;61850;54.980;73.298;2023-03-08T00:31:26;-2.83;88.60
73570;SHT30;61850;54.980;73.298;2023-03-08T00:33:53;-2.85;88.74
73570;SHT30;61850;54.980;73.298;2023-03-08T00:36:25;-2.86;88.82
73570;SHT30;61850;54.980;73.298;2023-03-08T00:38:51;-2.91;88.65
73570;SHT30;61850;54.980;73.298;2023-03-08T00:41:17;-2.91;88.64
73570;SHT30;61850;54.980;73.298;2023-03-08T00:43:57;-2.97;88.68
73570;SHT30;61850;54.980;73.298;2023-03-08T00:46:23;-2.99;88.68
73570;SHT30;61850;54.980;73.298;2023-03-08T00:48:55;-3.06;88.69
73570;SHT30;61850;54.980;73.298;2023-03-08T00:51:23;-3.04;88.72
73570;SHT30;61850;54.980;73.298;2023-03-08T00:54:02;-3.02;88.66
73570;SHT30;61850;54.980;73.298;2023-03-08T00:56:28;-3.03;88.49
73570;SHT30;61850;54.980;73.298;2023-03-08T00:59:00;-3.04;88.45
73570;SHT30;61850;54.980;73.298;2023-03-08T01:01:28;-3.10;88.53
73570;SHT30;61850;54.980;73.298;2023-03-08T01:03:56;-3.10;88.64
73570;SHT30;61850;54.980;73.298;2023-03-08T01:06:34;-3.10;88.61
73570;SHT30;61850;54.980;73.298;2023-03-08T01:09:05;-3.07;88.53
73570;SHT30;61850;54.980;73.298;2023-03-08T01:11:32;-3.12;88.84
73570;SHT30;61850;54.980;73.298;2023-03-08T01:14:00;-3.09;88.84
73570;SHT30;61850;54.980;73.298;2023-03-08T01:16:28;-3.10;88.87
73570;SHT30;61850;54.980;73.298;2023-03-08T01:18:58;-3.19;88.84
73570;SHT30;61850;54.980;73.298;2023-03-08T01:21:25;-3.21;88.83
73570;SHT30;61850;54.980;73.298;2023-03-08T01:23:51;-3.19;88.93
73570;SHT30;61850;54.980;73.298;2023-03-08T01:26:19;-3.20;90.17
73570;SHT30;61850;54.980;73.298;2023-03-08T01:28:45;-3.30;89.14
73570;SHT30;61850;54.980;73.298;2023-03-08T01:31:23;-3.26;89.01
73570;SHT30;61850;54.980;73.298;2023-03-08T01:33:56;-3.31;89.06
73570;SHT30;61850;54.980;73.298;2023-03-08T01:36:25;-3.27;89.00
73570;SHT30;61850;54.980;73.298;2023-03-08T01:38:52;-3.27;89.05
73570;SHT30;61850;54.980;73.298;2023-03-08T01:41:26;-3.30;89.07
73570;SHT30;61850;54.980;73.298;2023-03-08T01:43:59;-3.26;89.20
73570;SHT30;61850;54.980;73.298;2023-03-08T01:46:28;-3.21;89.19
73570;SHT30;61850;54.980;73.298;2023-03-08T01:51:53;-3.23;89.17
73570;SHT30;61850;54.980;73.298;2023-03-08T01:54:24;-3.24;89.24
73570;SHT30;61850;54.980;73.298;2023-03-08T01:57:03;-3.20;89.41
73570;SHT30;61850;54.980;73.298;2023-03-08T01:59:36;-3.21;89.36
73570;SHT30;61850;54.980;73.298;2023-03-08T02:02:05;-3.21;89.29
73570;SHT30;61850;54.980;73.298;2023-03-08T02:04:34;-3.26;89.26
73570;SHT30;61850;54.980;73.298;2023-03-08T02:07:01;-3.26;89.23
73570;SHT30;61850;54.980;73.298;2023-03-08T02:09:27;-3.24;89.53
73570;SHT30;61850;54.980;73.298;2023-03-08T02:11:54;-3.21;89.47
73570;SHT30;61850;54.980;73.298;2023-03-08T02:14:28;-3.19;89.46
73570;SHT30;61850;54.980;73.298;2023-03-08T02:17:05;-3.30;89.27
73570;SHT30;61850;54.980;73.298;2023-03-08T02:19:48;-3.29;89.63
73570;SHT30;61850;54.980;73.298;2023-03-08T02:22:22;-3.34;89.48
73570;SHT30;61850;54.980;73.298;2023-03-08T02:24:53;-3.31;89.33
73570;SHT30;61850;54.980;73.298;2023-03-08T02:27:25;-3.29;89.36
73570;SHT30;61850;54.980;73.298;2023-03-08T02:30:04;-3.34;89.38
73570;SHT30;61850;54.980;73.298;2023-03-08T02:32:30;-3.29;89.18
73570;SHT30;61850;54.980;73.298;2023-03-08T02:35:02;-3.30;89.07
73570;SHT30;61850;54.980;73.298;2023-03-08T02:37:33;-3.31;88.87
73570;SHT30;61850;54.980;73.298;2023-03-08T02:40:12;-3.29;88.89
73570;SHT30;61850;54.980;73.298;2023-03-08T02:42:38;-3.24;88.62
73570;SHT30;61850;54.980;73.298;2023-03-08T02:45:06;-3.33;88.49
73570;SHT30;61850;54.980;73.298;2023-03-08T02:47:36;-3.30;88.69
73570;SHT30;61850;54.980;73.298;2023-03-08T02:50:14;-3.26;88.68
73570;SHT30;61850;54.980;73.298;2023-03-08T02:52:44;-3.33;88.64
73570;SHT30;61850;54.980;73.298;2023-03-08T02:55:13;-3.33;88.85
73570;SHT30;61850;54.980;73.298;2023-03-08T02:57:43;-3.31;89.05
73570;SHT30;61850;54.980;73.298;2023-03-08T03:00:19;-3.29;89.02
73570;SHT30;61850;54.980;73.298;2023-03-08T03:02:46;-3.26;89.02
73570;SHT30;61850;54.980;73.298;2023-03-08T03:05:12;-3.27;88.87
73570;SHT30;61850;54.980;73.298;2023-03-08T03:07:41;-3.29;88.97
73570;SHT30;61850;54.980;73.298;2023-03-08T03:10:15;-3.23;88.62
73570;SHT30;61850;54.980;73.298;2023-03-08T03:12:42;-3.27;88.70
73570;SHT30;61850;54.980;73.298;2023-03-08T03:15:22;-3.26;88.70
73570;SHT30;61850;54.980;73.298;2023-03-08T03:17:53;-3.21;88.58
73570;SHT30;61850;54.980;73.298;2023-03-08T03:20:22;-3.09;88.40
73570;SHT30;61850;54.980;73.298;2023-03-08T03:22:48;-3.00;88.07
73570;SHT30;61850;54.980;73.298;2023-03-08T03:25:17;-2.96;87.83
73570;SHT30;61850;54.980;73.298;2023-03-08T03:27:45;-2.95;87.41
73570;SHT30;61850;54.980;73.298;2023-03-08T03:30:12;-2.93;87.50
73570;SHT30;61850;54.980;73.298;2023-03-08T03:32:39;-2.95;87.66
73570;SHT30;61850;54.980;73.298;2023-03-08T03:35:07;-2.93;87.87
73570;SHT30;61850;54.980;73.298;2023-03-08T03:37:34;-3.02;88.09
73570;SHT30;61850;54.980;73.298;2023-03-08T03:40:03;-2.97;92.49
73570;SHT30;61850;54.980;73.298;2023-03-08T03:42:29;-2.99;91.08
73570;SHT30;61850;54.980;73.298;2023-03-08T03:45:04;-3.04;88.20
73570;SHT30;61850;54.980;73.298;2023-03-08T03:47:43;-2.89;88.13
73570;SHT30;61850;54.980;73.298;2023-03-08T03:50:11;-2.86;88.31
73570;SHT30;61850;54.980;73.298;2023-03-08T03:52:50;-2.95;87.55
73570;SHT30;61850;54.980;73.298;2023-03-08T03:55:24;-2.93;87.57
73570;SHT30;61850;54.980;73.298;2023-03-08T03:57:51;-2.91;87.28
73570;SHT30;61850;54.980;73.298;2023-03-08T04:00:18;-2.95;87.28
73570;SHT30;61850;54.980;73.298;2023-03-08T04:02:53;-3.02;87.35
73570;SHT30;61850;54.980;73.298;2023-03-08T04:05:21;-3.10;87.21
73570;SHT30;61850;54.980;73.298;2023-03-08T04:07:52;-2.85;86.83
73570;SHT30;61850;54.980;73.298;2023-03-08T04:10:27;-2.76;86.03
73570;SHT30;61850;54.980;73.298;2023-03-08T04:12:59;-2.89;86.09
73570;SHT30;61850;54.980;73.298;2023-03-08T04:15:26;-2.76;85.39
73570;SHT30;61850;54.980;73.298;2023-03-08T04:17:52;-2.68;85.14
73570;SHT30;61850;54.980;73.298;2023-03-08T04:20:22;-2.52;85.15
73570;SHT30;61850;54.980;73.298;2023-03-08T04:22:54;-2.52;84.51
73570;SHT30;61850;54.980;73.298;2023-03-08T04:25:27;-2.44;84.04
73570;SHT30;61850;54.980;73.298;2023-03-08T04:27:57;-2.52;83.99
73570;SHT30;61850;54.980;73.298;2023-03-08T04:30:30;-2.40;83.59
73570;SHT30;61850;54.980;73.298;2023-03-08T04:33:08;-2.20;83.14
73570;SHT30;61850;54.980;73.298;2023-03-08T04:35:42;-2.00;82.42
73570;SHT30;61850;54.980;73.298;2023-03-08T04:38:09;-2.10;82.35
73570;SHT30;61850;54.980;73.298;2023-03-08T04:40:37;-2.36;82.67
73570;SHT30;61850;54.980;73.298;2023-03-08T04:43:27;-2.34;83.01
73570;SHT30;61850;54.980;73.298;2023-03-08T04:45:54;-2.15;82.60
73570;SHT30;61850;54.980;73.298;2023-03-08T04:48:21;-2.14;82.45
73570;SHT30;61850;54.980;73.298;2023-03-08T04:51:07;-2.23;82.14
73570;SHT30;61850;54.980;73.298;2023-03-08T04:53:33;-2.20;82.43
73570;SHT30;61850;54.980;73.298;2023-03-08T04:56:01;-2.17;82.30
73570;SHT30;61850;54.980;73.298;2023-03-08T04:58:28;-2.11;82.23
73570;SHT30;61850;54.980;73.298;2023-03-08T05:01:22;-2.13;82.09
73570;SHT30;61850;54.980;73.298;2023-03-08T05:03:59;-2.10;81.85
73570;SHT30;61850;54.980;73.298;2023-03-08T05:06:32;-2.15;81.72
73570;SHT30;61850;54.980;73.298;2023-03-08T05:09:05;-2.11;81.72
73570;SHT30;61850;54.980;73.298;2023-03-08T05:11:33;-2.02;81.44
73570;SHT30;61850;54.980;73.298;2023-03-08T05:13:59;-2.09;81.11
73570;SHT30;61850;54.980;73.298;2023-03-08T05:16:27;-2.14;81.19
73570;SHT30;61850;54.980;73.298;2023-03-08T05:18:53;-2.21;81.18
73570;SHT30;61850;54.980;73.298;2023-03-08T05:21:24;-2.10;81.09
73570;SHT30;61850;54.980;73.298;2023-03-08T05:23:57;-1.97;80.61
73570;SHT30;61850;54.980;73.298;2023-03-08T05:26:29;-1.93;80.25
73570;SHT30;61850;54.980;73.298;2023-03-08T05:28:59;-2.20;80.25
73570;SHT30;61850;54.980;73.298;2023-03-08T05:31:27;-2.15;80.56
73570;SHT30;61850;54.980;73.298;2023-03-08T05:33:56;-2.17;80.60
73570;SHT30;61850;54.980;73.298;2023-03-08T05:36:33;-2.15;80.41
73570;SHT30;61850;54.980;73.298;2023-03-08T05:39:11;-1.85;80.37
73570;SHT30;61850;54.980;73.298;2023-03-08T05:41:48;-1.90;80.13
73570;SHT30;61850;54.980;73.298;2023-03-08T05:44:32;-2.03;79.93
73570;SHT30;61850;54.980;73.298;2023-03-08T05:47:09;-2.11;80.23
73570;SHT30;61850;54.980;73.298;2023-03-08T05:49:42;-2.19;79.51
73570;SHT30;61850;54.980;73.298;2023-03-08T05:52:10;-2.27;79.39
73570;SHT30;61850;54.980;73.298;2023-03-08T05:54:47;-2.17;79.64
73570;SHT30;61850;54.980;73.298;2023-03-08T05:57:17;-2.13;79.61
73570;SHT30;61850;54.980;73.298;2023-03-08T05:59:54;-2.06;79.85
73570;SHT30;61850;54.980;73.298;2023-03-08T06:02:32;-2.19;79.79
73570;SHT30;61850;54.980;73.298;2023-03-08T06:05:21;-2.15;80.31
73570;SHT30;61850;54.980;73.298;2023-03-08T06:10:43;-2.20;80.66
73570;SHT30;61850;54.980;73.298;2023-03-08T06:13:29;-2.29;80.38
73570;SHT30;61850;54.980;73.298;2023-03-08T06:16:00;-2.07;80.38
73570;SHT30;61850;54.980;73.298;2023-03-08T06:18:34;-1.89;79.95
73570;SHT30;61850;54.980;73.298;2023-03-08T06:21:13;-1.97;79.98
73570;SHT30;61850;54.980;73.298;2023-03-08T06:23:41;-2.04;79.75
73570;SHT30;61850;54.980;73.298;2023-03-08T06:26:12;-2.06;79.76
73570;SHT30;61850;54.980;73.298;2023-03-08T06:28:45;-1.96;79.78
73570;SHT30;61850;54.980;73.298;2023-03-08T06:31:13;-1.76;79.71
73570;SHT30;61850;54.980;73.298;2023-03-08T06:33:42;-1.73;79.27
73570;SHT30;61850;54.980;73.298;2023-03-08T06:36:16;-1.69;79.31
73570;SHT30;61850;54.980;73.298;2023-03-08T06:38:45;-1.79;79.26
73570;SHT30;61850;54.980;73.298;2023-03-08T06:41:24;-1.66;78.95
73570;SHT30;61850;54.980;73.298;2023-03-08T06:43:53;-1.59;78.59
73570;SHT30;61850;54.980;73.298;2023-03-08T06:46:25;-1.61;78.50
73570;SHT30;61850;54.980;73.298;2023-03-08T06:48:51;-1.48;78.01
73570;SHT30;61850;54.980;73.298;2023-03-08T06:51:19;-1.44;78.22
73570;SHT30;61850;54.980;73.298;2023-03-08T06:54:01;-1.61;78.00
73570;SHT30;61850;54.980;73.298;2023-03-08T06:56:28;-1.64;78.18
73570;SHT30;61850;54.980;73.298;2023-03-08T06:58:54;-1.44;78.01
73570;SHT30;61850;54.980;73.298;2023-03-08T07:01:25;-1.34;77.76
73570;SHT30;61850;54.980;73.298;2023-03-08T07:03:56;-1.28;77.27
73570;SHT30;61850;54.980;73.298;2023-03-08T07:06:34;-1.10;77.05
73570;SHT30;61850;54.980;73.298;2023-03-08T07:09:06;-0.93;76.53
73570;SHT30;61850;54.980;73.298;2023-03-08T07:14:55;-1.00;76.38
73570;SHT30;61850;54.980;73.298;2023-03-08T07:17:22;-0.86;76.61
73570;SHT30;61850;54.980;73.298;2023-03-08T07:19:54;-0.48;75.90
73570;SHT30;61850;54.980;73.298;2023-03-08T07:22:20;-0.42;75.30
73570;SHT30;61850;54.980;73.298;2023-03-08T07:24:46;-0.45;74.80
73570;SHT30;61850;54.980;73.298;2023-03-08T07:27:13;-0.70;74.89
73570;SHT30;61850;54.980;73.298;2023-03-08T07:29:39;-0.58;75.25
73570;SHT30;61850;54.980;73.298;2023-03-08T07:32:11;-0.31;75.03
73570;SHT30;61850;54.980;73.298;2023-03-08T07:34:47;-0.18;74.53
73570;SHT30;61850;54.980;73.298;2023-03-08T07:37:15;-0.29;74.70
73570;SHT30;61850;54.980;73.298;2023-03-08T07:39:41;-0.34;74.47
73570;SHT30;61850;54.980;73.298;2023-03-08T07:42:18;-0.37;74.22
73570;SHT30;61850;54.980;73.298;2023-03-08T07:44:49;-0.31;74.57
73570;SHT30;61850;54.980;73.298;2023-03-08T07:47:26;-0.51;74.56
73570;SHT30;61850;54.980;73.298;2023-03-08T07:49:52;-0.29;74.64
73570;SHT30;61850;54.980;73.298;2023-03-08T07:52:18;-0.31;74.09
73570;SHT30;61850;54.980;73.298;2023-03-08T07:54:44;-0.21;74.46
73570;SHT30;61850;54.980;73.298;2023-03-08T07:57:12;-0.46;73.96
73570;SHT30;61850;54.980;73.298;2023-03-08T07:59:38;-0.41;74.85
73570;SHT30;61850;54.980;73.298;2023-03-08T08:02:16;-0.35;74.42
73570;SHT30;61850;54.980;73.298;2023-03-08T08:04:47;-0.25;72.65
73570;SHT30;61850;54.980;73.298;2023-03-08T08:07:20;-0.06;72.57
73570;SHT30;61850;54.980;73.298;2023-03-08T08:09:47;-0.14;72.00
73570;SHT30;61850;54.980;73.298;2023-03-08T08:12:14;-0.03;71.91
73570;SHT30;61850;54.980;73.298;2023-03-08T08:14:51;-0.22;71.92
73570;SHT30;61850;54.980;73.298;2023-03-08T08:17:18;-0.31;71.66
73570;SHT30;61850;54.980;73.298;2023-03-08T08:19:45;-0.32;72.22
73570;SHT30;61850;54.980;73.298;2023-03-08T08:22:11;-0.27;70.97
73570;SHT30;61850;54.980;73.298;2023-03-08T08:24:37;-0.08;70.60
73570;SHT30;61850;54.980;73.298;2023-03-08T08:27:03;-0.19;70.47
73570;SHT30;61850;54.980;73.298;2023-03-08T08:29:29;-0.42;70.71
73570;SHT30;61850;54.980;73.298;2023-03-08T08:32:01;-0.35;71.38
73570;SHT30;61850;54.980;73.298;2023-03-08T08:34:27;-0.19;71.13
73570;SHT30;61850;54.980;73.298;2023-03-08T08:36:58;-0.24;70.94
73570;SHT30;61850;54.980;73.298;2023-03-08T08:39:25;-0.28;71.23
73570;SHT30;61850;54.980;73.298;2023-03-08T08:41:51;-0.59;71.76
73570;SHT30;61850;54.980;73.298;2023-03-08T08:44:17;-0.56;72.54
73570;SHT30;61850;54.980;73.298;2023-03-08T08:46:43;-0.72;73.41
73570;SHT30;61850;54.980;73.298;2023-03-08T08:49:13;-0.72;73.73
73570;SHT30;61850;54.980;73.298;2023-03-08T08:51:45;-0.62;73.77
73570;SHT30;61850;54.980;73.298;2023-03-08T08:54:12;-0.62;73.82
73570;SHT30;61850;54.980;73.298;2023-03-08T08:56:38;-0.73;73.84
73570;SHT30;61850;54.980;73.298;2023-03-08T08:59:08;-0.93;74.18
73570;SHT30;61850;54.980;73.298;2023-03-08T09:01:34;-0.76;74.27
73570;SHT30;61850;54.980;73.298;2023-03-08T09:04:01;-0.77;74.13
73570;SHT30;61850;54.980;73.298;2023-03-08T09:06:28;-0.89;74.01
73570;SHT30;61850;54.980;73.298;2023-03-08T09:09:04;-0.87;74.25
73570;SHT30;61850;54.980;73.298;2023-03-08T09:11:37;-0.87;74.45
73570;SHT30;61850;54.980;73.298;2023-03-08T09:14:04;-0.97;73.74
73570;SHT30;61850;54.980;73.298;2023-03-08T09:16:31;-1.00;73.31
73570;SHT30;61850;54.980;73.298;2023-03-08T09:18:58;-0.95;73.58
73570;SHT30;61850;54.980;73.298;2023-03-08T09:21:25;-0.99;74.25
73570;SHT30;61850;54.980;73.298;2023-03-08T09:24:01;-0.75;73.35
73570;SHT30;61850;54.980;73.298;2023-03-08T09:26:33;-0.62;73.15
73570;SHT30;61850;54.980;73.298;2023-03-08T09:28:59;-0.19;72.38
73570;SHT30;61850;54.980;73.298;2023-03-08T09:31:42;-0.66;73.21
73570;SHT30;61850;54.980;73.298;2023-03-08T09:34:10;-0.66;73.46
73570;SHT30;61850;54.980;73.298;2023-03-08T09:36:42;-0.82;73.82
73570;SHT30;61850;54.980;73.298;2023-03-08T09:39:09;-0.72;74.12
73570;SHT30;61850;54.980;73.298;2023-03-08T09:49:36;-0.86;74.13
73570;SHT30;61850;54.980;73.298;2023-03-08T09:52:05;-0.90;74.57
73570;SHT30;61850;54.980;73.298;2023-03-08T09:54:34;-0.77;74.20
73570;SHT30;61850;54.980;73.298;2023-03-08T09:57:04;-0.66;74.13
73570;SHT30;61850;54.980;73.298;2023-03-08T09:59:34;-0.35;73.74
73570;SHT30;61850;54.980;73.298;2023-03-08T10:07:47;-0.13;71.83
73570;SHT30;61850;54.980;73.298;2023-03-08T10:13:15;-0.34;71.95
73570;SHT30;61850;54.980;73.298;2023-03-08T10:15:45;0.15;70.34
73570;SHT30;61850;54.980;73.298;2023-03-08T10:18:18;0.92;68.29
73570;SHT30;61850;54.980;73.298;2023-03-08T10:20:46;0.78;68.16
73570;SHT30;61850;54.980;73.298;2023-03-08T10:25:51;0.02;69.92
73570;SHT30;61850;54.980;73.298;2023-03-08T10:28:19;-0.24;71.15
73570;SHT30;61850;54.980;73.298;2023-03-08T10:30:51;-0.34;71.67
73570;SHT30;61850;54.980;73.298;2023-03-08T10:33:19;-0.28;72.07
73570;SHT30;61850;54.980;73.298;2023-03-08T10:35:57;-0.54;72.72
73570;SHT30;61850;54.980;73.298;2023-03-08T10:38:28;-0.95;72.64
73570;SHT30;61850;54.980;73.298;2023-03-08T10:40:59;-1.07;72.99
73570;SHT30;61850;54.980;73.298;2023-03-08T10:43:44;-1.14;72.95
73570;SHT30;61850;54.980;73.298;2023-03-08T10:46:26;-1.10;73.28
73570;SHT30;61850;54.980;73.298;2023-03-08T10:49:06;-1.13;73.12
73570;SHT30;61850;54.980;73.298;2023-03-08T10:51:33;-1.35;73.73
73570;SHT30;61850;54.980;73.298;2023-03-08T10:54:04;-1.25;74.00
73570;SHT30;61850;54.980;73.298;2023-03-08T10:56:35;-1.23;74.11
73570;SHT30;61850;54.980;73.298;2023-03-08T10:59:17;-1.51;74.47
73570;SHT30;61850;54.980;73.298;2023-03-08T11:01:47;-1.68;75.32
73570;SHT30;61850;54.980;73.298;2023-03-08T11:04:20;-1.78;75.94
73570;SHT30;61850;54.980;73.298;2023-03-08T11:06:47;-1.93;76.37
73570;SHT30;61850;54.980;73.298;2023-03-08T11:09:19;-2.06;76.68
73570;SHT30;61850;54.980;73.298;2023-03-08T11:11:45;-2.03;76.91
73570;SHT30;61850;54.980;73.298;2023-03-08T11:14:11;-2.07;76.81
73570;SHT30;61850;54.980;73.298;2023-03-08T11:51:21;-2.45;77.95
73570;SHT30;61850;54.980;73.298;2023-03-08T11:56:58;-2.45;78.36
73570;SHT30;61850;54.980;73.298;2023-03-08T12:01:59;-2.47;78.45
73570;SHT30;61850;54.980;73.298;2023-03-08T12:04:34;-2.58;78.69
73570;SHT30;61850;54.980;73.298;2023-03-08T12:07:04;-2.61;78.61
73570;SHT30;61850;54.980;73.298;2023-03-08T12:12:18;-2.86;79.10
73570;SHT30;61850;54.980;73.298;2023-03-08T12:14:56;-2.89;79.42
73570;SHT30;61850;54.980;73.298;2023-03-08T12:17:25;-2.92;79.45
73570;SHT30;61850;54.980;73.298;2023-03-08T12:20:00;-2.91;79.52
73570;SHT30;61850;54.980;73.298;2023-03-08T12:32:33;-3.17;80.02
73570;SHT30;61850;54.980;73.298;2023-03-08T12:35:03;-3.24;80.03
73570;SHT30;61850;54.980;73.298;2023-03-08T12:37:31;-3.31;80.05
73570;SHT30;61850;54.980;73.298;2023-03-08T12:40:02;-3.41;80.19
73570;SHT30;61850;54.980;73.298;2023-03-08T12:42:42;-3.47;80.27
73570;SHT30;61850;54.980;73.298;2023-03-08T12:47:36;-3.41;79.91
73570;SHT30;61850;54.980;73.298;2023-03-08T12:50:13;-3.50;80.11
73570;SHT30;61850;54.980;73.298;2023-03-08T12:52:44;-3.58;80.28
73570;SHT30;61850;54.980;73.298;2023-03-08T12:55:20;-3.61;80.22
73570;SHT30;61850;54.980;73.298;2023-03-08T12:57:48;-3.65;80.23
73570;SHT30;61850;54.980;73.298;2023-03-08T13:03:23;-3.61;79.89
73570;SHT30;61850;54.980;73.298;2023-03-08T13:05:54;-3.58;79.83
73570;SHT30;61850;54.980;73.298;2023-03-08T13:08:25;-3.48;79.58
73570;SHT30;61850;54.980;73.298;2023-03-08T13:10:57;-3.50;79.46
73570;SHT30;61850;54.980;73.298;2023-03-08T13:16:04;-3.40;79.22
73570;SHT30;61850;54.980;73.298;2023-03-08T13:18:43;-3.40;78.99
73570;SHT30;61850;54.980;73.298;2023-03-08T13:23:50;-3.36;78.46
73570;SHT30;61850;54.980;73.298;2023-03-08T13:29:09;-3.39;78.01
73570;SHT30;61850;54.980;73.298;2023-03-08T13:31:43;-3.36;77.88
73570;SHT30;61850;54.980;73.298;2023-03-08T13:34:29;-3.41;77.77
73570;SHT30;61850;54.980;73.298;2023-03-08T13:36:56;-3.47;77.94
73570;SHT30;61850;54.980;73.298;2023-03-08T13:39:27;-3.57;78.06
73570;SHT30;61850;54.980;73.298;2023-03-08T13:42:05;-3.62;78.22
73570;SHT30;61850;54.980;73.298;2023-03-08T13:44:32;-3.64;78.22
73570;SHT30;61850;54.980;73.298;2023-03-08T13:47:00;-3.68;78.11
73570;SHT30;61850;54.980;73.298;2023-03-08T13:49:31;-3.71;78.19
73570;SHT30;61850;54.980;73.298;2023-03-08T13:52:03;-3.77;78.21
73570;SHT30;61850;54.980;73.298;2023-03-08T13:54:33;-3.79;78.23
73570;SHT30;61850;54.980;73.298;2023-03-08T13:57:00;-3.85;78.46
73570;SHT30;61850;54.980;73.298;2023-03-08T13:59:33;-3.90;78.71
73570;SHT30;61850;54.980;73.298;2023-03-08T14:02:01;-3.92;78.99
73570;SHT30;61850;54.980;73.298;2023-03-08T14:04:33;-4.00;79.21
73570;SHT30;61850;54.980;73.298;2023-03-08T14:07:00;-3.99;79.55
73570;SHT30;61850;54.980;73.298;2023-03-08T14:09:26;-4.05;79.69
73570;SHT30;61850;54.980;73.298;2023-03-08T14:12:01;-4.05;79.81
73570;SHT30;61850;54.980;73.298;2023-03-08T14:14:30;-4.14;80.20
73570;SHT30;61850;54.980;73.298;2023-03-08T14:16:58;-4.19;80.74
73570;SHT30;61850;54.980;73.298;2023-03-08T14:19:34;-4.17;81.61
73570;SHT30;61850;54.980;73.298;2023-03-08T14:22:14;-4.17;82.10
73570;SHT30;61850;54.980;73.298;2023-03-08T14:24:42;-4.13;82.47
73570;SHT30;61850;54.980;73.298;2023-03-08T14:29:41;-4.06;82.35
73570;SHT30;61850;54.980;73.298;2023-03-08T14:34:43;-4.03;82.38
73570;SHT30;61850;54.980;73.298;2023-03-08T14:39:42;-4.05;82.65
73570;SHT30;61850;54.980;73.298;2023-03-08T14:45:03;-4.02;82.64
73570;SHT30;61850;54.980;73.298;2023-03-08T14:47:30;-4.06;82.77
73570;SHT30;61850;54.980;73.298;2023-03-08T14:52:41;-4.02;82.75
73570;SHT30;61850;54.980;73.298;2023-03-08T14:55:23;-4.05;82.82
73570;SHT30;61850;54.980;73.298;2023-03-08T14:58:07;-3.99;82.64
73570;SHT30;61850;54.980;73.298;2023-03-08T15:00:36;-3.98;82.63
73570;SHT30;61850;54.980;73.298;2023-03-08T15:03:13;-4.03;82.53
73570;SHT30;61850;54.980;73.298;2023-03-08T15:05:45;-4.03;82.58
73570;SHT30;61850;54.980;73.298;2023-03-08T15:08:13;-4.06;82.55
73570;SHT30;61850;54.980;73.298;2023-03-08T15:10:41;-4.07;82.55
73570;SHT30;61850;54.980;73.298;2023-03-08T15:13:15;-4.09;82.43
73570;SHT30;61850;54.980;73.298;2023-03-08T15:15:47;-4.09;82.45
73570;SHT30;61850;54.980;73.298;2023-03-08T15:18:20;-4.10;82.45
73570;SHT30;61850;54.980;73.298;2023-03-08T15:20:47;-4.10;82.40
73570;SHT30;61850;54.980;73.298;2023-03-08T15:25:50;-4.13;82.42
73570;SHT30;61850;54.980;73.298;2023-03-08T15:28:26;-4.16;82.54
73570;SHT30;61850;54.980;73.298;2023-03-08T15:30:54;-4.16;82.43
73570;SHT30;61850;54.980;73.298;2023-03-08T15:33:25;-4.19;82.52
73570;SHT30;61850;54.980;73.298;2023-03-08T15:35:53;-4.20;82.39
73570;SHT30;61850;54.980;73.298;2023-03-08T15:38:29;-4.17;82.47
73570;SHT30;61850;54.980;73.298;2023-03-08T15:41:00;-4.21;82.50
73570;SHT30;61850;54.980;73.298;2023-03-08T15:46:28;-4.24;82.56
73570;SHT30;61850;54.980;73.298;2023-03-08T15:48:57;-4.21;82.61
73570;SHT30;61850;54.980;73.298;2023-03-08T15:51:30;-4.26;82.71
73570;SHT30;61850;54.980;73.298;2023-03-08T15:54:03;-4.29;82.51
73570;SHT30;61850;54.980;73.298;2023-03-08T15:56:29;-4.33;82.32
73570;SHT30;61850;54.980;73.298;2023-03-08T15:58:56;-4.40;82.61
73570;SHT30;61850;54.980;73.298;2023-03-08T16:01:27;-4.37;82.61
73570;SHT30;61850;54.980;73.298;2023-03-08T16:03:59;-4.47;82.59
73570;SHT30;61850;54.980;73.298;2023-03-08T16:06:30;-4.50;82.47
73570;SHT30;61850;54.980;73.298;2023-03-08T16:08:57;-4.56;82.60
73570;SHT30;61850;54.980;73.298;2023-03-08T16:11:28;-4.54;82.62
73570;SHT30;61850;54.980;73.298;2023-03-08T16:13:55;-4.61;82.49
73570;SHT30;61850;54.980;73.298;2023-03-08T16:16:22;-4.68;82.91
73570;SHT30;61850;54.980;73.298;2023-03-08T16:18:48;-4.68;83.25
73570;SHT30;61850;54.980;73.298;2023-03-08T16:21:15;-4.75;83.28
73570;SHT30;61850;54.980;73.298;2023-03-08T16:23:46;-4.79;83.80
73570;SHT30;61850;54.980;73.298;2023-03-08T16:26:13;-4.77;84.14
73570;SHT30;61850;54.980;73.298;2023-03-08T16:28:46;-4.84;84.66
73570;SHT30;61850;54.980;73.298;2023-03-08T16:31:23;-4.84;84.93
73570;SHT30;61850;54.980;73.298;2023-03-08T16:33:50;-4.82;85.19
73570;SHT30;61850;54.980;73.298;2023-03-08T16:36:17;-4.84;85.47
73570;SHT30;61850;54.980;73.298;2023-03-08T16:38:49;-4.89;85.70
73570;SHT30;61850;54.980;73.298;2023-03-08T16:41:15;-4.92;85.93
73570;SHT30;61850;54.980;73.298;2023-03-08T16:43:50;-4.88;85.94
73570;SHT30;61850;54.980;73.298;2023-03-08T16:46:19;-4.95;85.92
73570;SHT30;61850;54.980;73.298;2023-03-08T16:48:46;-4.98;86.10
73570;SHT30;61850;54.980;73.298;2023-03-08T16:51:16;-4.92;85.92
73570;SHT30;61850;54.980;73.298;2023-03-08T16:53:47;-4.95;85.99
73570;SHT30;61850;54.980;73.298;2023-03-08T16:58:43;-4.92;86.10
73570;SHT30;61850;54.980;73.298;2023-03-08T17:01:10;-4.89;86.07
73570;SHT30;61850;54.980;73.298;2023-03-08T17:03:43;-4.98;85.84
73570;SHT30;61850;54.980;73.298;2023-03-08T17:06:20;-4.95;85.91
73570;SHT30;61850;54.980;73.298;2023-03-08T17:08:53;-4.99;86.06
73570;SHT30;61850;54.980;73.298;2023-03-08T17:11:28;-5.02;86.03
73570;SHT30;61850;54.980;73.298;2023-03-08T17:13:59;-5.05;86.14
73570;SHT30;61850;54.980;73.298;2023-03-08T17:16:32;-5.06;86.25
73570;SHT30;61850;54.980;73.298;2023-03-08T17:19:05;-5.03;86.15
73570;SHT30;61850;54.980;73.298;2023-03-08T17:21:33;-5.09;86.33
73570;SHT30;61850;54.980;73.298;2023-03-08T17:24:17;-5.13;86.60
73570;SHT30;61850;54.980;73.298;2023-03-08T17:26:55;-5.17;86.76
73570;SHT30;61850;54.980;73.298;2023-03-08T17:29:23;-5.19;86.71
73570;SHT30;61850;54.980;73.298;2023-03-08T17:31:50;-5.19;86.84
73570;SHT30;61850;54.980;73.298;2023-03-08T17:34:29;-5.22;86.94